createdAt,value
2023-02-06T00:00:25.409Z,2.09
2023-02-06T00:01:25.414Z,2.29
2023-02-06T00:02:25.440Z,2.19
2023-02-06T00:03:25.399Z,2.80
2023-02-06T00:04:25.426Z,2.43
2023-02-06T00:05:25.432Z,2.35
2023-02-06T00:06:25.401Z,2.09
2023-02-06T00:07:25.390Z,1.85
2023-02-06T01:55:28.106Z,2.00
2023-02-06T01:56:28.169Z,1.83
2023-02-06T01:57:28.214Z,2.03
2023-02-06T01:58:34.207Z,2.36
2023-02-06T01:59:29.246Z,2.25
2023-02-06T02:00:28.260Z,2.41
2023-02-06T02:01:28.232Z,2.50
2023-02-06T02:02:28.241Z,2.37
2023-02-06T02:03:28.238Z,1.77
2023-02-06T02:04:28.244Z,2.08
2023-02-06T02:05:28.235Z,2.34
2023-02-06T02:06:28.221Z,2.34
2023-02-06T02:07:28.226Z,2.32
2023-02-06T02:08:28.212Z,2.22
2023-02-06T02:09:28.208Z,2.42
2023-02-06T02:10:28.196Z,2.07
2023-02-06T02:11:28.232Z,2.19
2023-02-06T02:12:28.267Z,2.42
2023-02-06T02:13:28.309Z,2.58
2023-02-06T02:14:28.353Z,2.02
2023-02-06T02:15:28.383Z,2.10
2023-02-06T02:16:28.423Z,2.04
2023-02-06T02:17:28.466Z,1.88
2023-02-06T02:18:28.507Z,2.84
2023-02-06T02:19:28.558Z,2.08
2023-02-06T02:20:28.591Z,2.33
2023-02-06T02:21:28.658Z,2.40
2023-02-06T02:22:28.695Z,2.25
2023-02-06T02:23:28.741Z,1.84
2023-02-06T02:24:31.535Z,2.02
2023-02-06T02:25:28.768Z,2.08
2023-02-06T02:26:28.773Z,2.39
2023-02-06T02:27:28.766Z,2.43
2023-02-06T02:28:28.778Z,2.02
2023-02-06T02:29:28.769Z,2.21
2023-02-06T02:30:28.831Z,2.26
2023-02-06T02:31:28.775Z,2.36
2023-02-06T02:32:28.782Z,2.35
2023-02-06T02:33:28.793Z,2.15
2023-02-06T02:34:28.768Z,2.66
2023-02-06T02:35:28.770Z,1.74
2023-02-06T02:36:28.751Z,1.97
2023-02-06T02:37:28.759Z,1.68
2023-02-06T02:38:28.759Z,2.33
2023-02-06T02:39:28.740Z,2.13
2023-02-06T02:40:28.745Z,2.31
2023-02-06T02:41:28.751Z,1.96
2023-02-06T02:42:28.730Z,2.07
2023-02-06T02:43:28.723Z,2.11
2023-02-06T02:44:28.723Z,2.50
2023-02-06T02:45:28.727Z,2.18
2023-02-06T02:46:28.696Z,2.07
2023-02-06T02:47:28.695Z,2.54
2023-02-06T02:48:28.697Z,1.78
2023-02-06T02:49:28.690Z,1.84
2023-02-06T02:50:28.686Z,2.22
2023-02-06T02:51:28.688Z,2.56
2023-02-06T02:52:28.682Z,2.27
2023-02-06T02:53:28.669Z,2.14
2023-02-06T02:54:28.719Z,2.39
2023-02-06T02:55:28.669Z,2.25
2023-02-06T02:56:28.668Z,2.24
2023-02-06T02:57:28.649Z,2.41
2023-02-06T02:58:28.652Z,2.17
2023-02-06T02:59:28.632Z,2.13
2023-02-06T03:00:28.625Z,2.11
2023-02-06T03:01:28.611Z,2.00
2023-02-06T03:02:28.691Z,2.17
2023-02-06T03:03:28.614Z,1.85
2023-02-06T03:04:28.617Z,1.91
2023-02-06T03:05:28.615Z,2.03
2023-02-06T03:06:28.612Z,2.42
2023-02-06T03:07:28.604Z,2.26
2023-02-06T03:08:28.598Z,2.21
2023-02-06T03:09:28.607Z,2.15
2023-02-06T03:10:28.598Z,1.86
2023-02-06T03:11:28.603Z,1.93
2023-02-06T03:12:28.587Z,2.49
2023-02-06T03:13:28.605Z,2.12
2023-02-06T03:14:28.593Z,1.98
2023-02-06T03:15:28.589Z,1.92
2023-02-06T03:16:28.607Z,1.90
2023-02-06T03:17:28.637Z,2.67
2023-02-06T03:18:28.677Z,1.91
2023-02-06T03:19:28.721Z,1.97
2023-02-06T03:20:28.771Z,2.39
2023-02-06T03:21:28.801Z,2.33
2023-02-06T03:22:28.860Z,2.30
2023-02-06T03:23:28.884Z,2.09
2023-02-06T03:24:28.938Z,2.23
2023-02-06T03:25:28.988Z,2.10
2023-02-06T03:26:29.009Z,1.92
2023-02-06T03:27:29.061Z,2.63
2023-02-06T03:28:29.082Z,2.23
2023-02-06T03:29:29.139Z,2.14
2023-02-06T03:30:29.235Z,2.53
2023-02-06T03:31:29.264Z,2.16
2023-02-06T03:32:29.281Z,2.14
2023-02-06T03:33:29.320Z,1.93
2023-02-06T03:34:29.350Z,2.44
2023-02-06T03:35:29.394Z,2.46
2023-02-06T03:36:29.448Z,1.93
2023-02-06T03:37:29.495Z,2.42
2023-02-06T03:38:29.548Z,2.70
2023-02-06T03:39:29.586Z,1.75
2023-02-06T03:40:29.637Z,2.36
2023-02-06T03:41:29.670Z,2.57
2023-02-06T03:42:29.716Z,2.24
2023-02-06T03:43:29.765Z,2.15
2023-02-06T03:44:29.804Z,2.25
2023-02-06T03:45:29.843Z,2.09
2023-02-06T03:46:29.879Z,2.25
2023-02-06T03:47:29.921Z,2.06
2023-02-06T03:48:29.964Z,2.22
2023-02-06T03:49:30.014Z,2.01
2023-02-06T03:50:30.037Z,2.26
2023-02-06T03:51:30.075Z,2.11
2023-02-06T04:18:30.827Z,2.09
2023-02-06T04:32:31.106Z,2.53
2023-02-06T11:28:38.275Z,5.67
2023-02-06T12:18:38.133Z,5.78
2023-02-06T12:19:38.175Z,4.70
2023-02-06T12:20:38.235Z,4.76
2023-02-06T12:21:38.273Z,4.41
2023-02-06T12:22:38.319Z,4.20
2023-02-06T12:23:38.372Z,5.16
2023-02-06T12:24:38.402Z,4.33
2023-02-06T12:25:38.757Z,4.06
2023-02-06T12:26:38.439Z,4.70
2023-02-06T12:27:39.506Z,4.59
2023-02-06T12:28:38.410Z,4.55
2023-02-06T12:29:38.394Z,4.66
2023-02-06T12:30:38.576Z,4.63
2023-02-06T12:31:38.722Z,3.84
2023-02-06T12:32:38.606Z,4.23
2023-02-06T12:33:38.599Z,5.44
2023-02-06T12:34:38.587Z,4.83
2023-02-06T12:35:38.927Z,4.64
2023-02-06T12:36:38.622Z,5.06
2023-02-06T12:37:38.610Z,5.02
2023-02-06T12:38:38.616Z,4.48
2023-02-06T12:39:38.613Z,4.82
2023-02-06T12:40:38.613Z,4.09
2023-02-06T12:41:38.615Z,5.53
2023-02-06T12:42:38.600Z,4.77
2023-02-06T12:43:38.607Z,5.43
2023-02-06T12:44:38.607Z,4.60
2023-02-06T12:45:38.892Z,5.67
2023-02-06T12:46:38.619Z,4.69
2023-02-06T12:47:38.627Z,4.85
2023-02-06T12:48:38.637Z,5.28
2023-02-06T12:49:38.647Z,5.22
2023-02-06T12:50:38.636Z,5.05
2023-02-06T12:51:38.640Z,4.92
2023-02-06T12:52:38.651Z,4.82
2023-02-06T12:53:38.676Z,3.43
2023-02-06T12:54:38.673Z,4.46
2023-02-06T12:55:39.043Z,4.82
2023-02-06T12:56:38.692Z,4.30
2023-02-06T12:57:38.702Z,11.97
2023-02-06T12:58:38.715Z,4.71
2023-02-06T12:59:52.161Z,4.40
2023-02-06T13:01:38.723Z,4.08
2023-02-06T13:04:38.644Z,4.65
2023-02-06T13:06:38.600Z,3.58
2023-02-06T13:07:48.678Z,4.08
2023-02-06T13:09:40.949Z,5.22
2023-02-06T13:10:38.811Z,4.84
2023-02-06T13:11:38.540Z,3.98
2023-02-06T13:12:38.508Z,4.92
2023-02-06T13:13:38.485Z,3.93
2023-02-06T13:14:40.071Z,4.59
2023-02-06T13:15:38.675Z,4.94
2023-02-06T13:16:38.432Z,4.22
2023-02-06T13:17:38.423Z,4.51
2023-02-06T13:18:38.404Z,4.81
2023-02-06T13:19:38.388Z,5.19
2023-02-06T13:20:38.371Z,4.50
2023-02-06T13:21:38.352Z,4.21
2023-02-06T13:28:38.273Z,4.48
2023-02-06T13:29:38.257Z,4.08
2023-02-06T13:30:38.259Z,4.15
2023-02-06T13:31:38.285Z,4.36
2023-02-06T13:32:40.710Z,4.54
2023-02-06T13:33:38.369Z,4.69
2023-02-06T13:34:38.412Z,4.98
2023-02-06T13:35:38.650Z,3.67
2023-02-06T13:36:38.441Z,4.46
2023-02-06T13:37:38.449Z,4.10
2023-02-06T13:38:38.485Z,4.25
2023-02-06T13:39:38.517Z,4.03
2023-02-06T13:40:38.548Z,4.45
2023-02-06T13:41:38.588Z,4.30
2023-02-06T13:42:38.594Z,4.20
2023-02-06T13:43:38.631Z,3.80
2023-02-06T13:44:38.677Z,3.96
2023-02-06T15:04:41.772Z,3.40
2023-02-06T15:05:41.821Z,4.36
2023-02-06T15:06:41.852Z,3.75
2023-02-06T15:07:41.901Z,3.41
2023-02-06T15:08:41.952Z,4.04
2023-02-06T15:09:42.011Z,3.75
2023-02-06T15:10:42.046Z,4.12
2023-02-06T15:11:42.093Z,4.06
2023-02-06T15:12:42.143Z,3.61
2023-02-06T18:30:45.672Z,3.77
2023-02-06T19:39:47.093Z,3.13
2023-02-06T20:16:48.152Z,3.41
2023-02-06T20:17:48.142Z,3.09
2023-02-06T20:18:48.175Z,2.91
2023-02-06T20:19:48.209Z,3.03
2023-02-06T20:20:48.240Z,3.35
2023-02-06T20:21:48.280Z,3.08
2023-02-06T20:22:48.297Z,2.92
2023-02-06T20:23:48.337Z,2.88
2023-02-06T20:24:48.370Z,3.02
2023-02-06T20:25:48.397Z,3.23
2023-02-06T20:26:48.426Z,2.93
2023-02-06T20:27:48.470Z,3.27
2023-02-06T20:28:48.517Z,2.79
2023-02-06T20:29:48.503Z,2.88
2023-02-06T20:30:48.598Z,2.77
2023-02-06T20:31:48.718Z,2.52
2023-02-06T20:32:48.580Z,3.12
2023-02-06T20:33:48.594Z,2.93
2023-02-06T20:34:48.631Z,4.02
2023-02-06T20:35:48.660Z,3.29
2023-02-06T20:36:48.686Z,3.36
2023-02-06T20:37:48.707Z,3.42
2023-02-06T20:38:48.727Z,3.57
2023-02-06T20:39:48.753Z,3.18
2023-02-06T20:40:48.788Z,3.32
2023-02-06T20:41:48.822Z,3.06
2023-02-06T20:42:48.845Z,3.32
2023-02-06T20:43:48.885Z,3.35
2023-02-06T20:44:48.929Z,2.74
2023-02-06T20:45:48.956Z,3.25
2023-02-06T20:46:48.991Z,3.05
2023-02-06T20:47:49.005Z,3.43
2023-02-06T20:48:49.028Z,3.60
2023-02-06T20:49:49.069Z,3.19
2023-02-06T20:50:49.096Z,3.18
2023-02-06T20:51:49.134Z,4.66
2023-02-06T20:52:49.168Z,3.53
2023-02-06T20:53:49.199Z,2.65
2023-02-06T20:54:49.232Z,3.02
2023-02-06T20:55:49.259Z,2.86
2023-02-06T20:56:49.312Z,2.98
2023-02-06T20:57:49.324Z,2.97
2023-02-06T20:58:49.350Z,3.06
2023-02-06T20:59:49.397Z,3.42
2023-02-06T21:00:49.420Z,3.06
2023-02-06T21:01:49.462Z,2.73
2023-02-06T21:02:51.050Z,2.35
2023-02-06T21:03:49.472Z,3.18
2023-02-06T21:04:49.473Z,2.98
2023-02-06T21:05:49.468Z,2.86
2023-02-06T21:06:49.468Z,3.25
2023-02-06T21:07:49.458Z,3.21
2023-02-06T21:08:49.442Z,2.83
2023-02-06T21:09:49.427Z,2.89
2023-02-06T21:10:49.414Z,3.45
2023-02-06T21:11:49.413Z,3.32
2023-02-06T21:21:49.320Z,2.92
2023-02-06T21:22:49.300Z,2.89
2023-02-06T21:23:49.285Z,3.06
2023-02-06T21:24:49.276Z,3.31
2023-02-06T21:25:49.272Z,3.47
2023-02-06T21:26:49.268Z,2.82
2023-02-06T21:27:49.295Z,3.23
2023-02-06T21:28:49.240Z,3.26
2023-02-06T21:29:49.229Z,2.79
2023-02-06T21:30:49.350Z,3.46
2023-02-06T21:31:49.495Z,2.92
2023-02-06T21:32:49.214Z,3.24
2023-02-06T21:33:49.209Z,3.40
2023-02-06T21:34:49.200Z,3.03
2023-02-06T21:35:49.201Z,2.69
2023-02-06T21:36:49.188Z,3.05
2023-02-06T21:37:49.193Z,2.76
2023-02-06T21:38:49.182Z,3.15
2023-02-06T21:39:49.181Z,3.48
2023-02-06T21:40:49.178Z,3.00
2023-02-06T21:41:49.164Z,3.19
2023-02-06T21:42:49.172Z,3.55
2023-02-06T21:43:49.163Z,3.32
2023-02-06T21:44:49.162Z,3.01
2023-02-06T21:45:49.182Z,2.60
2023-02-06T21:46:49.154Z,2.51
2023-02-06T21:47:49.146Z,2.70
2023-02-06T21:48:49.134Z,2.83
2023-02-06T21:49:49.135Z,3.18
2023-02-06T21:50:49.125Z,2.27
2023-02-06T21:51:49.122Z,3.23
2023-02-06T21:52:49.122Z,3.23
2023-02-06T21:53:49.195Z,2.50
2023-02-06T21:54:49.098Z,2.84
2023-02-06T21:55:49.101Z,2.62
2023-02-06T21:56:49.094Z,2.61
2023-02-06T21:57:49.095Z,2.95
2023-02-06T21:58:49.088Z,3.28
2023-02-06T21:59:49.083Z,2.75
2023-02-06T22:00:49.059Z,2.86
2023-02-06T22:01:49.060Z,2.73
2023-02-06T22:02:49.068Z,2.94
2023-02-06T22:03:49.051Z,2.53
2023-02-06T22:04:49.044Z,3.32
2023-02-06T22:05:49.058Z,3.01
2023-02-06T22:06:49.200Z,3.37
2023-02-06T22:07:49.124Z,3.31
2023-02-06T22:08:49.164Z,3.29
2023-02-06T22:09:49.177Z,2.88
2023-02-06T22:10:49.209Z,2.94
2023-02-06T22:11:49.244Z,2.60
2023-02-06T22:12:49.266Z,2.77
2023-02-06T22:13:49.298Z,2.75
2023-02-06T22:14:49.327Z,2.81
2023-02-06T22:15:49.367Z,3.24
2023-02-06T22:16:49.392Z,2.92
2023-02-06T22:17:49.420Z,2.82
2023-02-06T22:18:49.457Z,2.96
2023-02-06T22:19:49.496Z,2.79
2023-02-06T22:20:49.514Z,3.11
2023-02-06T22:21:49.553Z,2.82
2023-02-06T22:22:49.579Z,2.43
2023-02-06T22:23:49.641Z,3.18
2023-02-06T22:24:49.652Z,3.15
2023-02-06T22:25:49.692Z,2.95
2023-02-06T22:26:49.729Z,3.19
2023-02-06T22:27:49.783Z,2.72
2023-02-06T22:28:49.796Z,2.89
2023-02-06T22:29:49.827Z,3.47
2023-02-06T22:30:49.866Z,2.52
2023-02-06T22:31:49.976Z,3.16
2023-02-06T22:32:49.930Z,2.99
2023-02-06T22:33:49.976Z,3.32
2023-02-06T22:34:50.010Z,3.09
2023-02-06T22:35:50.046Z,2.99
2023-02-06T22:36:50.076Z,3.28
2023-02-06T22:37:50.137Z,2.57
2023-02-06T22:38:50.165Z,3.30
2023-02-06T22:39:50.200Z,3.15
2023-02-06T22:40:50.232Z,2.74
2023-02-06T22:41:50.268Z,3.01
2023-02-06T22:42:50.304Z,3.07
2023-02-06T22:43:50.347Z,2.57
2023-02-06T22:44:50.386Z,2.83
2023-02-06T22:45:50.421Z,3.16
2023-02-06T22:46:50.509Z,3.03
2023-02-06T22:47:50.500Z,2.94
2023-02-06T22:48:50.521Z,3.33
2023-02-06T22:49:50.581Z,3.40
2023-02-06T22:50:50.598Z,2.73
2023-02-06T22:51:50.636Z,3.01
2023-02-06T22:52:50.682Z,2.85
2023-02-06T22:53:50.705Z,3.14
2023-02-06T22:54:50.741Z,2.91
2023-02-06T22:55:50.774Z,3.20
2023-02-06T22:56:50.847Z,2.83
2023-02-06T22:57:50.852Z,2.74
2023-02-06T22:58:50.888Z,2.78
2023-02-06T22:59:50.924Z,2.66
2023-02-06T23:00:50.982Z,2.84
2023-02-06T23:01:51.020Z,2.92
2023-02-06T23:02:51.017Z,2.62
2023-02-06T23:03:51.064Z,3.46
2023-02-06T23:04:51.107Z,2.98
2023-02-06T23:05:51.145Z,2.64
2023-02-06T23:06:51.190Z,2.73
2023-02-06T23:07:51.223Z,2.65
2023-02-06T23:08:51.272Z,2.57
2023-02-06T23:09:51.295Z,2.50
2023-02-06T23:10:51.348Z,2.70
2023-02-06T23:11:51.380Z,2.76
2023-02-06T23:12:51.409Z,3.23
2023-02-06T23:13:51.449Z,2.49
2023-02-06T23:14:51.476Z,3.16
2023-02-06T23:15:51.598Z,2.69
2023-02-06T23:16:51.540Z,3.04
2023-02-06T23:17:51.576Z,2.59
2023-02-06T23:18:51.614Z,2.99
2023-02-06T23:19:51.663Z,3.09
2023-02-06T23:20:51.691Z,3.27
2023-02-06T23:21:51.725Z,2.91
2023-02-06T23:22:51.765Z,3.45
2023-02-06T23:23:51.791Z,2.89
2023-02-06T23:24:51.846Z,2.60
2023-02-06T23:25:51.882Z,3.10
2023-02-06T23:26:51.913Z,2.80
2023-02-06T23:27:51.968Z,3.29
2023-02-06T23:28:51.992Z,2.76
2023-02-06T23:29:52.032Z,2.84
2023-02-06T23:30:52.141Z,2.92
2023-02-06T23:31:52.252Z,2.47
2023-02-06T23:32:52.138Z,2.83
2023-02-06T23:33:52.178Z,2.68
2023-02-06T23:34:52.213Z,3.11
2023-02-06T23:35:52.248Z,3.03
2023-02-06T23:36:52.298Z,2.80
2023-02-06T23:37:52.307Z,3.11
2023-02-06T23:38:52.340Z,3.11
2023-02-06T23:39:52.378Z,2.59
2023-02-06T23:40:52.409Z,3.44
2023-02-06T23:41:52.445Z,3.20
2023-02-06T23:42:52.478Z,2.65
2023-02-06T23:43:52.521Z,2.47
2023-02-06T23:44:52.549Z,3.00
2023-02-06T23:45:52.590Z,2.88
2023-02-06T23:46:52.609Z,2.64
2023-02-06T23:47:52.640Z,2.57
2023-02-06T23:48:52.687Z,3.05
2023-02-06T23:49:52.723Z,3.06
2023-02-06T23:50:52.757Z,2.97
2023-02-06T23:51:52.790Z,2.88
2023-02-06T23:52:52.837Z,3.42
2023-02-06T23:53:52.868Z,2.56
2023-02-06T23:54:52.939Z,2.61
2023-02-06T23:55:52.943Z,2.89
2023-02-06T23:56:52.985Z,2.52
2023-02-06T23:57:53.019Z,2.39
2023-02-06T23:58:53.066Z,2.58
2023-02-06T23:59:53.107Z,3.28
